Evagelistria — SV34O2 — position and weather

sailwx.info

Track history (hours):
 
Tides and Currents Weather Stations Pressure Air Temp Water Temp Dewpoint Dewpoint Depression Visibility Wind Speed Wind Dir Waves Ship Positions

Evagelistria

Last reported at 2018-Jun-25 12:07 UTC. Time now 2018-Jun-25 15:36 UTC.
Position N 40°17' E 024°03'.

Length 54 m.

Type: Passenger vessel. MMSI: 237113900.

Date/timePositionNaut miles runAvg speedWind from/ knotsBaromVisibWave heightAir tempDewpointWater temp
2018-Jun-25 12:07N 40°17' E 024°03'3 6.5
2018-Jun-25 11:36N 40°17' E 024°08'2 8.3
2018-Jun-25 11:24N 40°16' E 024°10'2 4.1
2018-Jun-25 10:52N 40°15' E 024°11'1 0.2
2018-Jun-25 04:33N 40°13' E 024°13'0 6.5
2018-Jun-25 04:30N 40°14' E 024°12'2 4.8
2018-Jun-25 04:00N 40°16' E 024°10'2 5.0
2018-Jun-25 03:30N 40°17' E 024°08'  
2018-Jun-22 13:04N 40°22' E 023°55'0 0.6
2018-Jun-22 12:57N 40°22' E 023°55'13 7.2
2018-Jun-22 11:07N 40°16' E 024°10'1 5.0
2018-Jun-22 10:51N 40°15' E 024°11'6 1.1
2018-Jun-22 05:21N 40°10' E 024°16'3 5.5
2018-Jun-22 04:54N 40°11' E 024°13'2 3.6
2018-Jun-22 04:18N 40°13' E 024°13'1 3.7
2018-Jun-22 03:59N 40°14' E 024°12'4 8.1
2018-Jun-22 03:30N 40°17' E 024°08'3 5.2
2018-Jun-22 02:59N 40°17' E 024°04'4 0.2
2018-Jun-21 12:23N 40°19' E 024°00'3 4.9
2018-Jun-21 11:49N 40°17' E 024°03'3 8.0
2018-Jun-21 11:29N 40°16' E 024°07'5 6.5
2018-Jun-21 10:44N 40°14' E 024°12'3 3.3
2018-Jun-21 09:51N 40°11' E 024°14'5 1.2
2018-Jun-21 05:57N 40°08' E 024°17'2 3.4
2018-Jun-21 05:24N 40°09' E 024°17'2 3.4
2018-Jun-21 04:48N 40°11' E 024°15'4 5.0
2018-Jun-21 04:06N 40°14' E 024°12'1 2.9
2018-Jun-21 03:47N 40°14' E 024°11'2 8.1
2018-Jun-21 03:30N 40°16' E 024°09'3 5.4
2018-Jun-21 02:59N 40°17' E 024°06'6 0.3
2018-Jun-20 04:24N 40°13' E 024°13'2 5.1
2018-Jun-20 04:00N 40°15' E 024°11'3 5.5
2018-Jun-20 03:26N 40°17' E 024°08'3 5.7
2018-Jun-20 02:56N 40°17' E 024°04'4 0.3
2018-Jun-19 11:23N 40°16' E 024°09'3 5.5
2018-Jun-19 10:56N 40°14' E 024°12'3 3.1
2018-Jun-19 09:53N 40°11' E 024°14'3 6.6
2018-Jun-19 09:25N 40°09' E 024°17'0 0.0
2018-Jun-19 05:28N 40°09' E 024°17'1 2.8
2018-Jun-19 05:00N 40°10' E 024°16'4 5.6
2018-Jun-19 04:17N 40°14' E 024°13'1 4.0
2018-Jun-19 03:57N 40°14' E 024°11'8 0.5
2018-Jun-18 12:30N 40°18' E 024°02'4 6.6
2018-Jun-18 11:58N 40°16' E 024°06'4 8.3
2018-Jun-18 11:30N 40°14' E 024°10'2 0.2
2018-Jun-18 04:16N 40°14' E 024°12'1 4.8
2018-Jun-18 04:00N 40°15' E 024°11'4 7.8
2018-Jun-18 03:30N 40°17' E 024°07'  
Track history (hours):
 
Tides and Currents Weather Stations Pressure Air Temp Water Temp Dewpoint Dewpoint Depression Visibility Wind Speed Wind Dir Waves Ship Positions

Evagelistria

Last reported at 2018-Jun-25 12:07 UTC. Time now 2018-Jun-25 15:36 UTC.
Position N 40°17' E 024°03'.

Length 54 m.

Type: Passenger vessel. MMSI: 237113900.

Date/timePositionNaut miles runAvg speedWind from/ knotsBaromVisibWave heightAir tempDewpointWater temp
2018-Jun-25 12:07N 40°17' E 024°03'3 6.5
2018-Jun-25 11:36N 40°17' E 024°08'2 8.3
2018-Jun-25 11:24N 40°16' E 024°10'2 4.1
2018-Jun-25 10:52N 40°15' E 024°11'1 0.2
2018-Jun-25 04:33N 40°13' E 024°13'0 6.5
2018-Jun-25 04:30N 40°14' E 024°12'2 4.8
2018-Jun-25 04:00N 40°16' E 024°10'2 5.0
2018-Jun-25 03:30N 40°17' E 024°08'  
2018-Jun-22 13:04N 40°22' E 023°55'0 0.6
2018-Jun-22 12:57N 40°22' E 023°55'13 7.2
2018-Jun-22 11:07N 40°16' E 024°10'1 5.0
2018-Jun-22 10:51N 40°15' E 024°11'6 1.1
2018-Jun-22 05:21N 40°10' E 024°16'3 5.5
2018-Jun-22 04:54N 40°11' E 024°13'2 3.6
2018-Jun-22 04:18N 40°13' E 024°13'1 3.7
2018-Jun-22 03:59N 40°14' E 024°12'4 8.1
2018-Jun-22 03:30N 40°17' E 024°08'3 5.2
2018-Jun-22 02:59N 40°17' E 024°04'4 0.2
2018-Jun-21 12:23N 40°19' E 024°00'3 4.9
2018-Jun-21 11:49N 40°17' E 024°03'3 8.0
2018-Jun-21 11:29N 40°16' E 024°07'5 6.5
2018-Jun-21 10:44N 40°14' E 024°12'3 3.3
2018-Jun-21 09:51N 40°11' E 024°14'5 1.2
2018-Jun-21 05:57N 40°08' E 024°17'2 3.4
2018-Jun-21 05:24N 40°09' E 024°17'2 3.4
2018-Jun-21 04:48N 40°11' E 024°15'4 5.0
2018-Jun-21 04:06N 40°14' E 024°12'1 2.9
2018-Jun-21 03:47N 40°14' E 024°11'2 8.1
2018-Jun-21 03:30N 40°16' E 024°09'3 5.4
2018-Jun-21 02:59N 40°17' E 024°06'6 0.3
2018-Jun-20 04:24N 40°13' E 024°13'2 5.1
2018-Jun-20 04:00N 40°15' E 024°11'3 5.5
2018-Jun-20 03:26N 40°17' E 024°08'3 5.7
2018-Jun-20 02:56N 40°17' E 024°04'4 0.3
2018-Jun-19 11:23N 40°16' E 024°09'3 5.5
2018-Jun-19 10:56N 40°14' E 024°12'3 3.1
2018-Jun-19 09:53N 40°11' E 024°14'3 6.6
2018-Jun-19 09:25N 40°09' E 024°17'0 0.0
2018-Jun-19 05:28N 40°09' E 024°17'1 2.8
2018-Jun-19 05:00N 40°10' E 024°16'4 5.6
2018-Jun-19 04:17N 40°14' E 024°13'1 4.0
2018-Jun-19 03:57N 40°14' E 024°11'8 0.5
2018-Jun-18 12:30N 40°18' E 024°02'4 6.6
2018-Jun-18 11:58N 40°16' E 024°06'4 8.3
2018-Jun-18 11:30N 40°14' E 024°10'2 0.2
2018-Jun-18 04:16N 40°14' E 024°12'1 4.8
2018-Jun-18 04:00N 40°15' E 024°11'4 7.8
2018-Jun-18 03:30N 40°17' E 024°07'  

Dump ship's entire track history